Terminal Aerodrome Forecast
Issued by NWS

Home | Current Version | Previous Version | Text Only | Print | Product List | Glossary Off
Versions: 1 2 3 4 5 6 7 8 9 10 11 12 13 14 15 16 17 18

154
FTUS43 KMPX 252320
TAFAXN
TAF
KAXN 252320Z 2600/2624 05010KT 5SM BR VCSH OVC007
     FM260300 06008KT 3SM BR OVC003
     FM261300 07011KT 6SM BR OVC005
     FM261700 08013G19KT P6SM OVC015
      AMD NOT SKED=

USA.gov is the U.S. government's official web portal to all federal, state and local government web resources and services.